sensor_id;sensor_type;location;lat;lon;timestamp;temperature;humidity
28845;DHT22;15976;47.938;7.758;2023-04-22T00:00:56;12.20;68.80
28845;DHT22;15976;47.938;7.758;2023-04-22T00:03:25;12.20;69.00
28845;DHT22;15976;47.938;7.758;2023-04-22T00:05:53;12.10;69.00
28845;DHT22;15976;47.938;7.758;2023-04-22T00:08:20;12.10;69.00
28845;DHT22;15976;47.938;7.758;2023-04-22T00:10:47;12.10;69.00
28845;DHT22;15976;47.938;7.758;2023-04-22T00:13:15;11.90;69.10
28845;DHT22;15976;47.938;7.758;2023-04-22T00:15:42;11.90;69.40
28845;DHT22;15976;47.938;7.758;2023-04-22T00:18:09;11.90;69.40
28845;DHT22;15976;47.938;7.758;2023-04-22T00:20:41;11.90;69.40
28845;DHT22;15976;47.938;7.758;2023-04-22T00:23:10;11.90;69.60
28845;DHT22;15976;47.938;7.758;2023-04-22T00:25:38;11.80;69.70
28845;DHT22;15976;47.938;7.758;2023-04-22T00:28:09;11.80;69.70
28845;DHT22;15976;47.938;7.758;2023-04-22T00:30:36;11.80;69.70
28845;DHT22;15976;47.938;7.758;2023-04-22T00:33:04;11.80;69.70
28845;DHT22;15976;47.938;7.758;2023-04-22T00:35:31;11.70;69.80
28845;DHT22;15976;47.938;7.758;2023-04-22T00:37:58;11.70;70.00
28845;DHT22;15976;47.938;7.758;2023-04-22T00:40:25;11.70;70.10
28845;DHT22;15976;47.938;7.758;2023-04-22T00:42:52;11.70;70.20
28845;DHT22;15976;47.938;7.758;2023-04-22T00:45:21;11.60;70.20
28845;DHT22;15976;47.938;7.758;2023-04-22T00:47:48;11.60;70.30
28845;DHT22;15976;47.938;7.758;2023-04-22T00:50:15;11.60;70.40
28845;DHT22;15976;47.938;7.758;2023-04-22T00:52:42;11.60;70.30
28845;DHT22;15976;47.938;7.758;2023-04-22T00:55:10;11.50;70.30
28845;DHT22;15976;47.938;7.758;2023-04-22T00:57:40;11.50;70.40
28845;DHT22;15976;47.938;7.758;2023-04-22T01:00:08;11.50;70.70
28845;DHT22;15976;47.938;7.758;2023-04-22T01:02:36;11.50;70.80
28845;DHT22;15976;47.938;7.758;2023-04-22T01:05:07;11.50;70.90
28845;DHT22;15976;47.938;7.758;2023-04-22T01:07:37;11.50;70.90
28845;DHT22;15976;47.938;7.758;2023-04-22T01:10:04;11.50;70.80
28845;DHT22;15976;47.938;7.758;2023-04-22T01:12:32;11.50;70.90
28845;DHT22;15976;47.938;7.758;2023-04-22T01:14:58;11.50;70.80
28845;DHT22;15976;47.938;7.758;2023-04-22T01:17:30;11.50;70.60
28845;DHT22;15976;47.938;7.758;2023-04-22T01:19:59;11.40;70.70
28845;DHT22;15976;47.938;7.758;2023-04-22T01:22:36;11.40;71.00
28845;DHT22;15976;47.938;7.758;2023-04-22T01:25:07;11.30;71.20
28845;DHT22;15976;47.938;7.758;2023-04-22T01:27:34;11.20;71.30
28845;DHT22;15976;47.938;7.758;2023-04-22T01:30:03;11.20;71.40
28845;DHT22;15976;47.938;7.758;2023-04-22T01:32:30;11.20;71.40
28845;DHT22;15976;47.938;7.758;2023-04-22T01:34:58;11.10;71.40
28845;DHT22;15976;47.938;7.758;2023-04-22T01:37:25;11.10;71.50
28845;DHT22;15976;47.938;7.758;2023-04-22T01:39:52;11.00;71.50
28845;DHT22;15976;47.938;7.758;2023-04-22T01:42:19;11.00;71.50
28845;DHT22;15976;47.938;7.758;2023-04-22T01:44:47;11.00;71.60
28845;DHT22;15976;47.938;7.758;2023-04-22T01:47:14;11.00;71.70
28845;DHT22;15976;47.938;7.758;2023-04-22T01:49:41;11.00;71.60
28845;DHT22;15976;47.938;7.758;2023-04-22T01:52:09;10.90;71.70
28845;DHT22;15976;47.938;7.758;2023-04-22T01:54:36;10.80;71.80
28845;DHT22;15976;47.938;7.758;2023-04-22T01:57:10;10.90;71.90
28845;DHT22;15976;47.938;7.758;2023-04-22T01:59:40;10.90;71.90
28845;DHT22;15976;47.938;7.758;2023-04-22T02:02:07;10.90;71.90
28845;DHT22;15976;47.938;7.758;2023-04-22T02:04:34;10.80;71.90
28845;DHT22;15976;47.938;7.758;2023-04-22T02:07:02;10.80;72.20
28845;DHT22;15976;47.938;7.758;2023-04-22T02:09:32;10.80;72.20
28845;DHT22;15976;47.938;7.758;2023-04-22T02:11:59;10.80;72.20
28845;DHT22;15976;47.938;7.758;2023-04-22T02:14:27;10.80;72.20
28845;DHT22;15976;47.938;7.758;2023-04-22T02:16:54;10.80;72.40
28845;DHT22;15976;47.938;7.758;2023-04-22T02:19:22;10.80;72.40
28845;DHT22;15976;47.938;7.758;2023-04-22T02:21:49;10.70;72.50
28845;DHT22;15976;47.938;7.758;2023-04-22T02:24:16;10.70;72.50
28845;DHT22;15976;47.938;7.758;2023-04-22T02:26:43;10.70;72.50
28845;DHT22;15976;47.938;7.758;2023-04-22T02:29:10;10.70;72.60
28845;DHT22;15976;47.938;7.758;2023-04-22T02:31:39;10.60;72.60
28845;DHT22;15976;47.938;7.758;2023-04-22T02:34:07;10.60;72.70
28845;DHT22;15976;47.938;7.758;2023-04-22T02:36:34;10.60;72.80
28845;DHT22;15976;47.938;7.758;2023-04-22T02:39:02;10.60;72.80
28845;DHT22;15976;47.938;7.758;2023-04-22T02:41:30;10.60;72.90
28845;DHT22;15976;47.938;7.758;2023-04-22T02:43:57;10.60;72.90
28845;DHT22;15976;47.938;7.758;2023-04-22T02:46:26;10.60;72.90
28845;DHT22;15976;47.938;7.758;2023-04-22T02:48:53;10.60;72.90
28845;DHT22;15976;47.938;7.758;2023-04-22T02:51:20;10.60;73.10
28845;DHT22;15976;47.938;7.758;2023-04-22T02:53:48;10.60;73.10
28845;DHT22;15976;47.938;7.758;2023-04-22T02:56:15;10.60;73.20
28845;DHT22;15976;47.938;7.758;2023-04-22T02:58:44;10.60;73.20
28845;DHT22;15976;47.938;7.758;2023-04-22T03:01:11;10.60;73.20
28845;DHT22;15976;47.938;7.758;2023-04-22T03:03:38;10.60;73.20
28845;DHT22;15976;47.938;7.758;2023-04-22T03:06:09;10.60;73.10
28845;DHT22;15976;47.938;7.758;2023-04-22T03:08:36;10.60;73.10
28845;DHT22;15976;47.938;7.758;2023-04-22T03:11:04;10.60;72.90
28845;DHT22;15976;47.938;7.758;2023-04-22T03:13:31;10.60;73.10
28845;DHT22;15976;47.938;7.758;2023-04-22T03:15:59;10.60;73.30
28845;DHT22;15976;47.938;7.758;2023-04-22T03:18:31;10.60;73.20
28845;DHT22;15976;47.938;7.758;2023-04-22T03:21:13;10.50;73.30
28845;DHT22;15976;47.938;7.758;2023-04-22T03:23:44;10.60;73.50
28845;DHT22;15976;47.938;7.758;2023-04-22T03:26:32;10.50;73.40
28845;DHT22;15976;47.938;7.758;2023-04-22T03:29:01;10.50;73.40
28845;DHT22;15976;47.938;7.758;2023-04-22T03:31:32;10.50;73.60
28845;DHT22;15976;47.938;7.758;2023-04-22T03:34:05;10.40;73.50
28845;DHT22;15976;47.938;7.758;2023-04-22T03:36:44;10.40;73.70
28845;DHT22;15976;47.938;7.758;2023-04-22T03:39:19;10.40;73.70
28845;DHT22;15976;47.938;7.758;2023-04-22T03:41:57;10.40;73.80
28845;DHT22;15976;47.938;7.758;2023-04-22T03:44:26;10.40;73.80
28845;DHT22;15976;47.938;7.758;2023-04-22T03:46:57;10.40;73.80
28845;DHT22;15976;47.938;7.758;2023-04-22T03:49:35;10.40;73.80
28845;DHT22;15976;47.938;7.758;2023-04-22T03:52:04;10.40;73.90
28845;DHT22;15976;47.938;7.758;2023-04-22T03:54:35;10.40;73.90
28845;DHT22;15976;47.938;7.758;2023-04-22T03:57:05;10.40;73.90
28845;DHT22;15976;47.938;7.758;2023-04-22T03:59:36;10.40;73.90
28845;DHT22;15976;47.938;7.758;2023-04-22T04:02:17;10.40;73.90
28845;DHT22;15976;47.938;7.758;2023-04-22T04:04:54;10.40;73.80
28845;DHT22;15976;47.938;7.758;2023-04-22T04:07:34;10.40;73.80
28845;DHT22;15976;47.938;7.758;2023-04-22T04:10:10;10.40;73.90
28845;DHT22;15976;47.938;7.758;2023-04-22T04:12:49;10.30;74.00
28845;DHT22;15976;47.938;7.758;2023-04-22T04:15:19;10.30;74.10
28845;DHT22;15976;47.938;7.758;2023-04-22T04:17:52;10.30;74.10
28845;DHT22;15976;47.938;7.758;2023-04-22T04:20:29;10.30;74.00
28845;DHT22;15976;47.938;7.758;2023-04-22T04:23:06;10.20;74.10
28845;DHT22;15976;47.938;7.758;2023-04-22T04:25:47;10.20;74.30
28845;DHT22;15976;47.938;7.758;2023-04-22T04:28:16;10.20;74.40
28845;DHT22;15976;47.938;7.758;2023-04-22T04:30:52;10.10;74.60
28845;DHT22;15976;47.938;7.758;2023-04-22T04:33:21;10.10;74.80
28845;DHT22;15976;47.938;7.758;2023-04-22T04:35:53;10.10;74.90
28845;DHT22;15976;47.938;7.758;2023-04-22T04:38:32;10.10;75.00
28845;DHT22;15976;47.938;7.758;2023-04-22T04:41:04;10.10;74.90
28845;DHT22;15976;47.938;7.758;2023-04-22T04:43:44;10.10;74.90
28845;DHT22;15976;47.938;7.758;2023-04-22T04:46:23;10.10;74.90
28845;DHT22;15976;47.938;7.758;2023-04-22T04:48:59;10.00;74.80
28845;DHT22;15976;47.938;7.758;2023-04-22T04:51:37;10.10;75.10
28845;DHT22;15976;47.938;7.758;2023-04-22T04:54:23;10.10;75.10
28845;DHT22;15976;47.938;7.758;2023-04-22T04:57:02;10.10;74.90
28845;DHT22;15976;47.938;7.758;2023-04-22T05:00:03;10.10;74.90
28845;DHT22;15976;47.938;7.758;2023-04-22T05:02:48;10.10;74.90
28845;DHT22;15976;47.938;7.758;2023-04-22T05:05:25;10.10;74.90
28845;DHT22;15976;47.938;7.758;2023-04-22T05:07:59;10.10;74.90
28845;DHT22;15976;47.938;7.758;2023-04-22T05:10:34;10.10;74.90
28845;DHT22;15976;47.938;7.758;2023-04-22T05:13:18;10.10;74.90
28845;DHT22;15976;47.938;7.758;2023-04-22T05:15:53;10.10;74.80
28845;DHT22;15976;47.938;7.758;2023-04-22T05:18:32;10.00;74.80
28845;DHT22;15976;47.938;7.758;2023-04-22T05:21:10;10.10;74.90
28845;DHT22;15976;47.938;7.758;2023-04-22T05:23:42;10.10;75.00
28845;DHT22;15976;47.938;7.758;2023-04-22T05:26:29;10.10;74.90
28845;DHT22;15976;47.938;7.758;2023-04-22T05:29:06;10.10;74.90
28845;DHT22;15976;47.938;7.758;2023-04-22T05:31:48;10.10;74.90
28845;DHT22;15976;47.938;7.758;2023-04-22T05:34:32;10.20;74.80
28845;DHT22;15976;47.938;7.758;2023-04-22T05:37:28;10.20;74.70
28845;DHT22;15976;47.938;7.758;2023-04-22T05:40:08;10.20;74.60
28845;DHT22;15976;47.938;7.758;2023-04-22T05:42:40;10.20;74.50
28845;DHT22;15976;47.938;7.758;2023-04-22T05:45:10;10.30;74.40
28845;DHT22;15976;47.938;7.758;2023-04-22T05:47:39;10.30;74.30
28845;DHT22;15976;47.938;7.758;2023-04-22T05:50:10;10.30;74.20
28845;DHT22;15976;47.938;7.758;2023-04-22T05:52:48;10.30;74.20
28845;DHT22;15976;47.938;7.758;2023-04-22T05:55:24;10.40;74.50
28845;DHT22;15976;47.938;7.758;2023-04-22T05:58:00;10.40;74.40
28845;DHT22;15976;47.938;7.758;2023-04-22T06:00:52;10.50;74.40
28845;DHT22;15976;47.938;7.758;2023-04-22T06:04:11;10.70;74.30
28845;DHT22;15976;47.938;7.758;2023-04-22T06:06:45;10.90;73.80
28845;DHT22;15976;47.938;7.758;2023-04-22T06:09:18;11.10;73.30
28845;DHT22;15976;47.938;7.758;2023-04-22T06:11:49;11.30;73.00
28845;DHT22;15976;47.938;7.758;2023-04-22T06:14:23;11.50;72.50
28845;DHT22;15976;47.938;7.758;2023-04-22T06:17:05;11.70;71.80
28845;DHT22;15976;47.938;7.758;2023-04-22T06:19:37;12.00;71.30
28845;DHT22;15976;47.938;7.758;2023-04-22T06:22:05;12.20;70.90
28845;DHT22;15976;47.938;7.758;2023-04-22T06:24:36;12.30;70.50
28845;DHT22;15976;47.938;7.758;2023-04-22T06:27:06;12.50;70.40
28845;DHT22;15976;47.938;7.758;2023-04-22T06:29:40;12.60;70.20
28845;DHT22;15976;47.938;7.758;2023-04-22T06:32:17;12.70;70.00
28845;DHT22;15976;47.938;7.758;2023-04-22T06:34:48;12.80;69.70
28845;DHT22;15976;47.938;7.758;2023-04-22T06:37:22;12.90;69.40
28845;DHT22;15976;47.938;7.758;2023-04-22T06:39:53;13.00;69.10
28845;DHT22;15976;47.938;7.758;2023-04-22T06:42:42;13.10;68.80
28845;DHT22;15976;47.938;7.758;2023-04-22T06:45:20;13.30;68.60
28845;DHT22;15976;47.938;7.758;2023-04-22T06:48:09;13.40;68.20
28845;DHT22;15976;47.938;7.758;2023-04-22T06:51:08;13.40;67.90
28845;DHT22;15976;47.938;7.758;2023-04-22T06:53:48;13.40;67.80
28845;DHT22;15976;47.938;7.758;2023-04-22T06:56:30;13.40;67.70
28845;DHT22;15976;47.938;7.758;2023-04-22T06:59:01;13.40;67.70
28845;DHT22;15976;47.938;7.758;2023-04-22T07:01:44;13.50;67.70
28845;DHT22;15976;47.938;7.758;2023-04-22T07:04:23;13.50;67.80
28845;DHT22;15976;47.938;7.758;2023-04-22T07:07:42;13.80;67.60
28845;DHT22;15976;47.938;7.758;2023-04-22T07:10:24;14.20;65.70
28845;DHT22;15976;47.938;7.758;2023-04-22T07:13:42;14.50;64.40
28845;DHT22;15976;47.938;7.758;2023-04-22T07:16:32;15.00;62.80
28845;DHT22;15976;47.938;7.758;2023-04-22T07:19:08;15.40;61.00
28845;DHT22;15976;47.938;7.758;2023-04-22T07:21:37;15.90;59.50
28845;DHT22;15976;47.938;7.758;2023-04-22T07:24:11;16.30;58.50
28845;DHT22;15976;47.938;7.758;2023-04-22T07:26:48;16.80;57.60
28845;DHT22;15976;47.938;7.758;2023-04-22T07:29:41;17.20;56.60
28845;DHT22;15976;47.938;7.758;2023-04-22T07:32:26;17.40;55.80
28845;DHT22;15976;47.938;7.758;2023-04-22T07:35:12;17.60;55.60
28845;DHT22;15976;47.938;7.758;2023-04-22T07:38:10;18.00;55.00
28845;DHT22;15976;47.938;7.758;2023-04-22T07:41:06;18.30;54.20
28845;DHT22;15976;47.938;7.758;2023-04-22T07:43:38;18.60;53.70
28845;DHT22;15976;47.938;7.758;2023-04-22T07:46:16;18.80;53.20
28845;DHT22;15976;47.938;7.758;2023-04-22T07:49:00;19.20;52.60
28845;DHT22;15976;47.938;7.758;2023-04-22T07:51:47;19.50;51.90
28845;DHT22;15976;47.938;7.758;2023-04-22T07:54:41;19.80;51.30
28845;DHT22;15976;47.938;7.758;2023-04-22T07:57:24;20.20;50.70
28845;DHT22;15976;47.938;7.758;2023-04-22T07:59:58;20.50;49.60
28845;DHT22;15976;47.938;7.758;2023-04-22T08:02:44;20.80;49.10
28845;DHT22;15976;47.938;7.758;2023-04-22T08:05:21;21.00;48.40
28845;DHT22;15976;47.938;7.758;2023-04-22T08:07:48;21.30;48.00
28845;DHT22;15976;47.938;7.758;2023-04-22T08:10:16;21.60;47.20
28845;DHT22;15976;47.938;7.758;2023-04-22T08:12:43;21.80;46.30
28845;DHT22;15976;47.938;7.758;2023-04-22T08:15:10;22.00;45.50
28845;DHT22;15976;47.938;7.758;2023-04-22T08:17:38;22.20;44.90
28845;DHT22;15976;47.938;7.758;2023-04-22T08:20:05;22.50;44.70
28845;DHT22;15976;47.938;7.758;2023-04-22T08:22:33;22.80;44.20
28845;DHT22;15976;47.938;7.758;2023-04-22T08:25:01;23.10;43.90
28845;DHT22;15976;47.938;7.758;2023-04-22T08:27:28;23.50;43.50
28845;DHT22;15976;47.938;7.758;2023-04-22T08:29:55;23.80;43.00
28845;DHT22;15976;47.938;7.758;2023-04-22T08:32:22;24.10;42.50
28845;DHT22;15976;47.938;7.758;2023-04-22T08:34:52;24.20;42.10
28845;DHT22;15976;47.938;7.758;2023-04-22T08:37:28;24.30;42.10
28845;DHT22;15976;47.938;7.758;2023-04-22T08:39:55;24.30;42.30
28845;DHT22;15976;47.938;7.758;2023-04-22T08:42:22;24.30;42.40
28845;DHT22;15976;47.938;7.758;2023-04-22T08:44:55;24.20;42.20
28845;DHT22;15976;47.938;7.758;2023-04-22T08:48:07;24.00;41.70
28845;DHT22;15976;47.938;7.758;2023-04-22T08:50:48;23.80;42.70
28845;DHT22;15976;47.938;7.758;2023-04-22T08:53:26;23.60;42.80
28845;DHT22;15976;47.938;7.758;2023-04-22T08:55:55;23.30;43.30
28845;DHT22;15976;47.938;7.758;2023-04-22T08:58:23;23.00;44.00
28845;DHT22;15976;47.938;7.758;2023-04-22T09:00:50;22.80;44.60
28845;DHT22;15976;47.938;7.758;2023-04-22T09:03:17;22.70;45.50
28845;DHT22;15976;47.938;7.758;2023-04-22T09:05:46;22.60;45.00
28845;DHT22;15976;47.938;7.758;2023-04-22T09:08:14;22.50;44.70
28845;DHT22;15976;47.938;7.758;2023-04-22T09:10:41;22.50;44.80
28845;DHT22;15976;47.938;7.758;2023-04-22T09:13:09;22.50;44.80
28845;DHT22;15976;47.938;7.758;2023-04-22T09:15:37;22.50;44.90
28845;DHT22;15976;47.938;7.758;2023-04-22T09:18:04;22.50;45.30
28845;DHT22;15976;47.938;7.758;2023-04-22T09:20:31;23.00;44.90
28845;DHT22;15976;47.938;7.758;2023-04-22T09:23:02;23.70;44.10
28845;DHT22;15976;47.938;7.758;2023-04-22T09:25:32;24.40;43.00
28845;DHT22;15976;47.938;7.758;2023-04-22T09:28:00;24.80;42.10
28845;DHT22;15976;47.938;7.758;2023-04-22T09:32:59;26.30;40.70
28845;DHT22;15976;47.938;7.758;2023-04-22T09:35:31;26.80;39.60
28845;DHT22;15976;47.938;7.758;2023-04-22T09:38:00;27.30;38.60
28845;DHT22;15976;47.938;7.758;2023-04-22T09:40:30;27.90;37.90
28845;DHT22;15976;47.938;7.758;2023-04-22T09:43:00;28.30;37.00
28845;DHT22;15976;47.938;7.758;2023-04-22T09:45:30;28.60;36.10
28845;DHT22;15976;47.938;7.758;2023-04-22T09:48:18;28.80;35.60
28845;DHT22;15976;47.938;7.758;2023-04-22T09:50:50;29.10;34.80
28845;DHT22;15976;47.938;7.758;2023-04-22T09:53:29;29.40;34.80
28845;DHT22;15976;47.938;7.758;2023-04-22T09:56:08;29.70;34.40
28845;DHT22;15976;47.938;7.758;2023-04-22T09:58:46;30.10;34.00
28845;DHT22;15976;47.938;7.758;2023-04-22T10:01:18;30.80;34.20
28845;DHT22;15976;47.938;7.758;2023-04-22T10:03:45;31.30;32.80
28845;DHT22;15976;47.938;7.758;2023-04-22T10:06:12;31.60;31.30
28845;DHT22;15976;47.938;7.758;2023-04-22T10:08:40;32.00;30.70
28845;DHT22;15976;47.938;7.758;2023-04-22T10:11:07;32.50;29.90
28845;DHT22;15976;47.938;7.758;2023-04-22T10:13:34;32.70;29.10
28845;DHT22;15976;47.938;7.758;2023-04-22T10:16:02;32.30;28.60
28845;DHT22;15976;47.938;7.758;2023-04-22T10:18:29;31.30;28.70
28845;DHT22;15976;47.938;7.758;2023-04-22T10:20:59;31.10;29.70
28845;DHT22;15976;47.938;7.758;2023-04-22T10:23:31;30.90;29.90
28845;DHT22;15976;47.938;7.758;2023-04-22T10:25:58;30.70;30.80
28845;DHT22;15976;47.938;7.758;2023-04-22T10:28:27;30.50;31.30
28845;DHT22;15976;47.938;7.758;2023-04-22T10:30:56;30.10;31.90
28845;DHT22;15976;47.938;7.758;2023-04-22T10:36:07;29.00;33.30
28845;DHT22;15976;47.938;7.758;2023-04-22T10:38:35;28.20;33.10
28845;DHT22;15976;47.938;7.758;2023-04-22T10:41:32;27.50;33.20
28845;DHT22;15976;47.938;7.758;2023-04-22T10:44:15;26.70;33.40
28845;DHT22;15976;47.938;7.758;2023-04-22T10:49:29;25.30;34.70
28845;DHT22;15976;47.938;7.758;2023-04-22T10:52:05;24.70;35.70
28845;DHT22;15976;47.938;7.758;2023-04-22T10:55:07;24.20;36.50
28845;DHT22;15976;47.938;7.758;2023-04-22T10:58:10;23.70;37.90
28845;DHT22;15976;47.938;7.758;2023-04-22T11:01:04;23.30;39.00
28845;DHT22;15976;47.938;7.758;2023-04-22T11:04:21;22.70;41.60
28845;DHT22;15976;47.938;7.758;2023-04-22T11:07:31;22.20;45.50
28845;DHT22;15976;47.938;7.758;2023-04-22T11:10:39;22.00;45.20
28845;DHT22;15976;47.938;7.758;2023-04-22T11:14:44;22.10;44.90
28845;DHT22;15976;47.938;7.758;2023-04-22T11:18:35;22.30;44.30
28845;DHT22;15976;47.938;7.758;2023-04-22T11:21:48;22.60;44.00
28845;DHT22;15976;47.938;7.758;2023-04-22T11:24:31;22.90;43.30
28845;DHT22;15976;47.938;7.758;2023-04-22T11:27:51;23.70;42.40
28845;DHT22;15976;47.938;7.758;2023-04-22T11:30:49;24.80;40.20
28845;DHT22;15976;47.938;7.758;2023-04-22T11:33:33;25.20;39.60
28845;DHT22;15976;47.938;7.758;2023-04-22T11:36:11;25.40;38.90
28845;DHT22;15976;47.938;7.758;2023-04-22T11:38:56;25.30;38.10
28845;DHT22;15976;47.938;7.758;2023-04-22T11:41:26;24.90;37.10
28845;DHT22;15976;47.938;7.758;2023-04-22T11:43:56;24.50;37.20
28845;DHT22;15976;47.938;7.758;2023-04-22T11:46:33;24.10;37.90
28845;DHT22;15976;47.938;7.758;2023-04-22T11:49:18;23.90;38.70
28845;DHT22;15976;47.938;7.758;2023-04-22T11:51:59;23.90;38.70
28845;DHT22;15976;47.938;7.758;2023-04-22T11:54:53;23.80;39.10
28845;DHT22;15976;47.938;7.758;2023-04-22T11:57:34;23.90;39.40
28845;DHT22;15976;47.938;7.758;2023-04-22T12:00:04;23.80;39.10
28845;DHT22;15976;47.938;7.758;2023-04-22T12:02:38;23.60;38.80
28845;DHT22;15976;47.938;7.758;2023-04-22T12:05:11;23.40;39.00
28845;DHT22;15976;47.938;7.758;2023-04-22T12:07:45;23.20;38.80
28845;DHT22;15976;47.938;7.758;2023-04-22T12:10:37;22.90;39.20
28845;DHT22;15976;47.938;7.758;2023-04-22T12:13:29;22.80;40.00
28845;DHT22;15976;47.938;7.758;2023-04-22T12:16:20;23.20;40.70
28845;DHT22;15976;47.938;7.758;2023-04-22T12:19:02;23.80;39.60
28845;DHT22;15976;47.938;7.758;2023-04-22T12:21:34;24.20;38.30
28845;DHT22;15976;47.938;7.758;2023-04-22T12:24:26;24.40;37.40
28845;DHT22;15976;47.938;7.758;2023-04-22T12:27:08;24.40;36.70
28845;DHT22;15976;47.938;7.758;2023-04-22T12:29:56;24.30;37.00
28845;DHT22;15976;47.938;7.758;2023-04-22T12:32:30;24.30;36.90
28845;DHT22;15976;47.938;7.758;2023-04-22T12:35:00;24.30;36.80
28845;DHT22;15976;47.938;7.758;2023-04-22T12:37:31;24.30;36.30
28845;DHT22;15976;47.938;7.758;2023-04-22T12:40:07;24.10;36.30
28845;DHT22;15976;47.938;7.758;2023-04-22T12:42:37;24.00;36.50
28845;DHT22;15976;47.938;7.758;2023-04-22T12:45:18;23.90;36.80
28845;DHT22;15976;47.938;7.758;2023-04-22T12:47:53;24.00;37.30
28845;DHT22;15976;47.938;7.758;2023-04-22T12:50:31;24.10;37.40
28845;DHT22;15976;47.938;7.758;2023-04-22T12:56:17;24.20;37.10
28845;DHT22;15976;47.938;7.758;2023-04-22T12:58:54;24.20;37.20
28845;DHT22;15976;47.938;7.758;2023-04-22T13:01:41;24.30;36.80
28845;DHT22;15976;47.938;7.758;2023-04-22T13:04:16;24.60;37.20
28845;DHT22;15976;47.938;7.758;2023-04-22T13:07:12;25.00;37.10
28845;DHT22;15976;47.938;7.758;2023-04-22T13:09:47;25.20;36.30
28845;DHT22;15976;47.938;7.758;2023-04-22T13:12:27;25.50;36.30
28845;DHT22;15976;47.938;7.758;2023-04-22T13:15:15;25.90;36.30
28845;DHT22;15976;47.938;7.758;2023-04-22T13:17:51;25.90;36.10
28845;DHT22;15976;47.938;7.758;2023-04-22T13:20:32;25.90;36.00
28845;DHT22;15976;47.938;7.758;2023-04-22T13:23:22;25.90;35.70
28845;DHT22;15976;47.938;7.758;2023-04-22T13:26:09;25.90;35.80
28845;DHT22;15976;47.938;7.758;2023-04-22T13:28:42;25.70;36.00
28845;DHT22;15976;47.938;7.758;2023-04-22T13:31:26;25.50;36.20
28845;DHT22;15976;47.938;7.758;2023-04-22T13:34:29;25.30;36.50
28845;DHT22;15976;47.938;7.758;2023-04-22T13:40:11;25.30;36.70
28845;DHT22;15976;47.938;7.758;2023-04-22T13:46:21;25.30;36.70
28845;DHT22;15976;47.938;7.758;2023-04-22T13:48:58;25.20;36.50
28845;DHT22;15976;47.938;7.758;2023-04-22T13:51:35;25.10;36.60
28845;DHT22;15976;47.938;7.758;2023-04-22T13:54:57;25.00;36.50
28845;DHT22;15976;47.938;7.758;2023-04-22T13:57:26;25.20;36.60
28845;DHT22;15976;47.938;7.758;2023-04-22T13:59:54;25.10;36.70
28845;DHT22;15976;47.938;7.758;2023-04-22T14:02:26;25.00;37.00
28845;DHT22;15976;47.938;7.758;2023-04-22T14:04:56;24.80;36.90
28845;DHT22;15976;47.938;7.758;2023-04-22T14:07:25;24.70;37.30
28845;DHT22;15976;47.938;7.758;2023-04-22T14:09:53;24.70;37.80
28845;DHT22;15976;47.938;7.758;2023-04-22T14:12:21;24.70;37.60
28845;DHT22;15976;47.938;7.758;2023-04-22T14:14:50;24.80;37.40
28845;DHT22;15976;47.938;7.758;2023-04-22T14:17:21;24.70;37.20
28845;DHT22;15976;47.938;7.758;2023-04-22T14:19:52;24.40;37.20
28845;DHT22;15976;47.938;7.758;2023-04-22T14:22:24;24.20;37.70
28845;DHT22;15976;47.938;7.758;2023-04-22T14:25:01;24.10;37.90
28845;DHT22;15976;47.938;7.758;2023-04-22T14:27:35;24.00;37.90
28845;DHT22;15976;47.938;7.758;2023-04-22T14:30:06;23.90;38.30
28845;DHT22;15976;47.938;7.758;2023-04-22T14:32:36;23.70;38.50
28845;DHT22;15976;47.938;7.758;2023-04-22T14:35:09;23.50;38.70
28845;DHT22;15976;47.938;7.758;2023-04-22T14:37:36;23.30;38.90
28845;DHT22;15976;47.938;7.758;2023-04-22T14:40:04;23.10;39.50
28845;DHT22;15976;47.938;7.758;2023-04-22T14:42:31;22.90;40.00
28845;DHT22;15976;47.938;7.758;2023-04-22T14:44:58;22.70;40.30
28845;DHT22;15976;47.938;7.758;2023-04-22T14:47:25;22.50;40.50
28845;DHT22;15976;47.938;7.758;2023-04-22T14:49:53;22.30;40.80
28845;DHT22;15976;47.938;7.758;2023-04-22T14:52:20;22.30;41.80
28845;DHT22;15976;47.938;7.758;2023-04-22T14:54:47;22.20;41.50
28845;DHT22;15976;47.938;7.758;2023-04-22T14:57:17;22.00;41.70
28845;DHT22;15976;47.938;7.758;2023-04-22T14:59:45;21.90;41.80
28845;DHT22;15976;47.938;7.758;2023-04-22T15:02:13;21.60;41.20
28845;DHT22;15976;47.938;7.758;2023-04-22T15:04:46;21.40;41.20
28845;DHT22;15976;47.938;7.758;2023-04-22T15:07:16;21.10;41.00
28845;DHT22;15976;47.938;7.758;2023-04-22T15:09:42;21.00;41.10
28845;DHT22;15976;47.938;7.758;2023-04-22T15:12:11;20.80;40.70
28845;DHT22;15976;47.938;7.758;2023-04-22T15:14:40;20.60;41.10
28845;DHT22;15976;47.938;7.758;2023-04-22T15:17:08;20.40;42.10
28845;DHT22;15976;47.938;7.758;2023-04-22T15:19:35;20.20;43.50
28845;DHT22;15976;47.938;7.758;2023-04-22T15:22:02;19.70;45.20
28845;DHT22;15976;47.938;7.758;2023-04-22T15:24:35;19.20;46.60
28845;DHT22;15976;47.938;7.758;2023-04-22T15:27:02;19.00;48.60
28845;DHT22;15976;47.938;7.758;2023-04-22T15:29:34;18.90;49.10
28845;DHT22;15976;47.938;7.758;2023-04-22T15:32:01;18.90;48.60
28845;DHT22;15976;47.938;7.758;2023-04-22T15:34:29;19.00;48.00
28845;DHT22;15976;47.938;7.758;2023-04-22T15:36:56;19.00;47.60
28845;DHT22;15976;47.938;7.758;2023-04-22T15:39:23;19.10;47.10
28845;DHT22;15976;47.938;7.758;2023-04-22T15:41:50;19.10;47.10
28845;DHT22;15976;47.938;7.758;2023-04-22T15:44:17;19.20;47.20
28845;DHT22;15976;47.938;7.758;2023-04-22T15:46:44;19.20;47.10
28845;DHT22;15976;47.938;7.758;2023-04-22T15:49:12;19.10;47.00
28845;DHT22;15976;47.938;7.758;2023-04-22T15:51:40;19.20;47.10
28845;DHT22;15976;47.938;7.758;2023-04-22T15:54:07;19.20;47.00
28845;DHT22;15976;47.938;7.758;2023-04-22T15:56:35;19.10;46.90
28845;DHT22;15976;47.938;7.758;2023-04-22T15:59:02;19.10;47.40
28845;DHT22;15976;47.938;7.758;2023-04-22T16:01:30;19.20;46.80
28845;DHT22;15976;47.938;7.758;2023-04-22T16:03:57;19.20;46.80
28845;DHT22;15976;47.938;7.758;2023-04-22T16:06:24;19.20;46.80
28845;DHT22;15976;47.938;7.758;2023-04-22T16:08:51;19.10;46.90
28845;DHT22;15976;47.938;7.758;2023-04-22T16:11:18;19.10;47.00
28845;DHT22;15976;47.938;7.758;2023-04-22T16:13:45;19.10;47.20
28845;DHT22;15976;47.938;7.758;2023-04-22T16:16:12;19.10;47.30
28845;DHT22;15976;47.938;7.758;2023-04-22T16:18:39;19.10;47.30
28845;DHT22;15976;47.938;7.758;2023-04-22T16:21:10;19.10;47.20
28845;DHT22;15976;47.938;7.758;2023-04-22T16:23:37;19.10;47.10
28845;DHT22;15976;47.938;7.758;2023-04-22T16:26:04;19.10;47.30
28845;DHT22;15976;47.938;7.758;2023-04-22T16:28:32;19.10;47.50
28845;DHT22;15976;47.938;7.758;2023-04-22T16:30:59;19.00;47.70
28845;DHT22;15976;47.938;7.758;2023-04-22T16:33:26;19.00;48.10
28845;DHT22;15976;47.938;7.758;2023-04-22T16:35:53;18.90;49.10